sensor_id;sensor_type;location;lat;lon;timestamp;pressure;altitude;pressure_sealevel;temperature;humidity
11184;BME280;5648;43.628;22.684;2022-08-02T00:00:06;95102.28;;;19.37;97.93
11184;BME280;5648;43.628;22.684;2022-08-02T00:02:32;95091.81;;;19.41;100.00
11184;BME280;5648;43.628;22.684;2022-08-02T00:04:58;95093.38;;;19.26;100.00
11184;BME280;5648;43.628;22.684;2022-08-02T00:07:23;95092.03;;;19.19;99.18
11184;BME280;5648;43.628;22.684;2022-08-02T00:09:49;95095.50;;;19.19;100.00
11184;BME280;5648;43.628;22.684;2022-08-02T00:12:14;95097.34;;;19.14;99.34
11184;BME280;5648;43.628;22.684;2022-08-02T00:14:40;95096.03;;;19.16;100.00
11184;BME280;5648;43.628;22.684;2022-08-02T00:17:05;95105.69;;;19.22;99.44
11184;BME280;5648;43.628;22.684;2022-08-02T00:19:31;95107.31;;;19.23;97.63
11184;BME280;5648;43.628;22.684;2022-08-02T00:21:57;95103.84;;;19.28;100.00
11184;BME280;5648;43.628;22.684;2022-08-02T00:24:22;95102.22;;;19.27;100.00
11184;BME280;5648;43.628;22.684;2022-08-02T00:26:48;95104.09;;;19.26;100.00
11184;BME280;5648;43.628;22.684;2022-08-02T00:29:13;95099.47;;;19.12;100.00
11184;BME280;5648;43.628;22.684;2022-08-02T00:31:39;95099.72;;;19.05;100.00
11184;BME280;5648;43.628;22.684;2022-08-02T00:34:04;95106.16;;;19.04;100.00
11184;BME280;5648;43.628;22.684;2022-08-02T00:36:30;95095.97;;;19.06;100.00
11184;BME280;5648;43.628;22.684;2022-08-02T00:38:55;95088.44;;;18.98;100.00
11184;BME280;5648;43.628;22.684;2022-08-02T00:41:21;95102.38;;;19.00;100.00
11184;BME280;5648;43.628;22.684;2022-08-02T00:43:48;95090.09;;;19.04;100.00
11184;BME280;5648;43.628;22.684;2022-08-02T00:46:16;95098.91;;;19.05;100.00
11184;BME280;5648;43.628;22.684;2022-08-02T00:48:42;95102.88;;;18.97;100.00
11184;BME280;5648;43.628;22.684;2022-08-02T00:51:08;95099.38;;;18.91;100.00
11184;BME280;5648;43.628;22.684;2022-08-02T00:53:33;95102.88;;;18.92;100.00
11184;BME280;5648;43.628;22.684;2022-08-02T00:55:59;95101.78;;;18.88;100.00
11184;BME280;5648;43.628;22.684;2022-08-02T00:58:26;95093.69;;;18.83;100.00
11184;BME280;5648;43.628;22.684;2022-08-02T01:00:51;95092.09;;;18.82;100.00
11184;BME280;5648;43.628;22.684;2022-08-02T01:03:17;95092.34;;;18.80;100.00
11184;BME280;5648;43.628;22.684;2022-08-02T01:05:42;95090.75;;;18.79;100.00
11184;BME280;5648;43.628;22.684;2022-08-02T01:08:11;95094.75;;;18.82;100.00
11184;BME280;5648;43.628;22.684;2022-08-02T01:10:36;95096.63;;;18.76;100.00
11184;BME280;5648;43.628;22.684;2022-08-02T01:13:02;95087.78;;;18.76;100.00
11184;BME280;5648;43.628;22.684;2022-08-02T01:15:28;95082.97;;;18.78;100.00
11184;BME280;5648;43.628;22.684;2022-08-02T01:18:00;95086.16;;;18.75;100.00
11184;BME280;5648;43.628;22.684;2022-08-02T01:29:03;95082.84;;;18.62;100.00
11184;BME280;5648;43.628;22.684;2022-08-02T01:31:51;95082.31;;;18.60;100.00
11184;BME280;5648;43.628;22.684;2022-08-02T01:34:23;95078.56;;;18.61;100.00
11184;BME280;5648;43.628;22.684;2022-08-02T01:37:19;95079.63;;;18.60;100.00
11184;BME280;5648;43.628;22.684;2022-08-02T01:39:49;95083.38;;;18.59;100.00
11184;BME280;5648;43.628;22.684;2022-08-02T01:42:17;95081.69;;;18.53;100.00
11184;BME280;5648;43.628;22.684;2022-08-02T01:44:44;95077.19;;;18.59;100.00
11184;BME280;5648;43.628;22.684;2022-08-02T01:47:21;95076.41;;;18.58;100.00
11184;BME280;5648;43.628;22.684;2022-08-02T01:49:51;95079.03;;;18.53;100.00
11184;BME280;5648;43.628;22.684;2022-08-02T01:52:19;95077.38;;;18.47;100.00
11184;BME280;5648;43.628;22.684;2022-08-02T01:54:49;95081.13;;;18.46;100.00
11184;BME280;5648;43.628;22.684;2022-08-02T01:57:17;95080.00;;;18.42;100.00
11184;BME280;5648;43.628;22.684;2022-08-02T01:59:45;95081.81;;;18.31;100.00
11184;BME280;5648;43.628;22.684;2022-08-02T02:02:13;95074.53;;;18.27;100.00
11184;BME280;5648;43.628;22.684;2022-08-02T02:04:41;95071.88;;;18.27;100.00
11184;BME280;5648;43.628;22.684;2022-08-02T02:07:08;95068.13;;;18.28;100.00
11184;BME280;5648;43.628;22.684;2022-08-02T02:09:36;95064.66;;;18.27;100.00
11184;BME280;5648;43.628;22.684;2022-08-02T02:12:03;95072.47;;;18.34;100.00
11184;BME280;5648;43.628;22.684;2022-08-02T02:14:29;95074.91;;;18.40;100.00
11184;BME280;5648;43.628;22.684;2022-08-02T02:16:58;95071.41;;;18.35;100.00
11184;BME280;5648;43.628;22.684;2022-08-02T02:19:25;95082.66;;;18.37;100.00
11184;BME280;5648;43.628;22.684;2022-08-02T02:21:51;95079.44;;;18.35;100.00
11184;BME280;5648;43.628;22.684;2022-08-02T02:24:17;95080.81;;;18.43;100.00
11184;BME280;5648;43.628;22.684;2022-08-02T02:26:43;95091.28;;;18.44;100.00
11184;BME280;5648;43.628;22.684;2022-08-02T02:29:10;95078.41;;;18.41;100.00
11184;BME280;5648;43.628;22.684;2022-08-02T02:31:41;95088.56;;;18.39;100.00
11184;BME280;5648;43.628;22.684;2022-08-02T02:34:14;95086.94;;;18.38;100.00
11184;BME280;5648;43.628;22.684;2022-08-02T02:36:45;95087.22;;;18.36;100.00
11184;BME280;5648;43.628;22.684;2022-08-02T02:39:13;95084.78;;;18.35;100.00
11184;BME280;5648;43.628;22.684;2022-08-02T02:41:40;95099.75;;;18.31;100.00
11184;BME280;5648;43.628;22.684;2022-08-02T02:44:10;95101.25;;;18.17;100.00
11184;BME280;5648;43.628;22.684;2022-08-02T02:46:38;95103.81;;;18.06;100.00
11184;BME280;5648;43.628;22.684;2022-08-02T02:49:05;95095.78;;;18.06;100.00
11184;BME280;5648;43.628;22.684;2022-08-02T02:51:32;95092.06;;;18.07;100.00
11184;BME280;5648;43.628;22.684;2022-08-02T02:53:58;95098.50;;;18.12;100.00
11184;BME280;5648;43.628;22.684;2022-08-02T02:56:24;95103.00;;;18.06;100.00
11184;BME280;5648;43.628;22.684;2022-08-02T02:58:50;95109.16;;;18.06;100.00
11184;BME280;5648;43.628;22.684;2022-08-02T03:01:19;95109.47;;;18.10;100.00
11184;BME280;5648;43.628;22.684;2022-08-02T03:04:01;95107.34;;;18.12;100.00
11184;BME280;5648;43.628;22.684;2022-08-02T03:06:28;95104.94;;;18.16;100.00
11184;BME280;5648;43.628;22.684;2022-08-02T03:08:54;95110.31;;;18.16;100.00
11184;BME280;5648;43.628;22.684;2022-08-02T03:11:20;95117.03;;;18.18;100.00
11184;BME280;5648;43.628;22.684;2022-08-02T03:13:46;95112.50;;;18.19;100.00
11184;BME280;5648;43.628;22.684;2022-08-02T03:16:11;95112.50;;;18.19;100.00
11184;BME280;5648;43.628;22.684;2022-08-02T03:18:42;95101.28;;;18.22;100.00
11184;BME280;5648;43.628;22.684;2022-08-02T03:21:10;95105.22;;;18.14;100.00
11184;BME280;5648;43.628;22.684;2022-08-02T03:23:37;95103.59;;;18.13;100.00
11184;BME280;5648;43.628;22.684;2022-08-02T03:26:04;95104.16;;;18.15;100.00
11184;BME280;5648;43.628;22.684;2022-08-02T03:28:30;95113.03;;;18.21;100.00
11184;BME280;5648;43.628;22.684;2022-08-02T03:30:55;95114.00;;;18.09;100.00
11184;BME280;5648;43.628;22.684;2022-08-02T03:33:22;95102.13;;;18.00;100.00
11184;BME280;5648;43.628;22.684;2022-08-02T03:35:49;95101.56;;;17.93;100.00
11184;BME280;5648;43.628;22.684;2022-08-02T03:38:16;95102.41;;;17.99;100.00
11184;BME280;5648;43.628;22.684;2022-08-02T03:40:43;95115.03;;;18.03;100.00
11184;BME280;5648;43.628;22.684;2022-08-02T03:43:10;95115.22;;;17.97;100.00
11184;BME280;5648;43.628;22.684;2022-08-02T03:45:38;95116.53;;;17.94;100.00
11184;BME280;5648;43.628;22.684;2022-08-02T03:48:07;95121.88;;;17.94;100.00
11184;BME280;5648;43.628;22.684;2022-08-02T03:50:33;95116.00;;;17.92;100.00
11184;BME280;5648;43.628;22.684;2022-08-02T03:53:00;95123.22;;;17.92;100.00
11184;BME280;5648;43.628;22.684;2022-08-02T03:55:26;95127.19;;;17.89;100.00
11184;BME280;5648;43.628;22.684;2022-08-02T03:57:52;95126.94;;;17.91;100.00
11184;BME280;5648;43.628;22.684;2022-08-02T04:00:20;95136.50;;;17.87;100.00
11184;BME280;5648;43.628;22.684;2022-08-02T04:02:46;95140.75;;;17.83;100.00
11184;BME280;5648;43.628;22.684;2022-08-02T04:05:12;95141.06;;;17.86;100.00
11184;BME280;5648;43.628;22.684;2022-08-02T04:07:37;95150.47;;;17.89;100.00
11184;BME280;5648;43.628;22.684;2022-08-02T04:10:04;95151.75;;;17.86;100.00
11184;BME280;5648;43.628;22.684;2022-08-02T04:12:30;95150.91;;;17.80;100.00
11184;BME280;5648;43.628;22.684;2022-08-02T04:14:55;95154.88;;;17.78;100.00
11184;BME280;5648;43.628;22.684;2022-08-02T04:17:22;95153.88;;;17.84;100.00
11184;BME280;5648;43.628;22.684;2022-08-02T04:19:50;95157.41;;;17.68;100.00
11184;BME280;5648;43.628;22.684;2022-08-02T04:22:30;95160.34;;;17.66;100.00
11184;BME280;5648;43.628;22.684;2022-08-02T04:25:00;95155.78;;;17.67;100.00
11184;BME280;5648;43.628;22.684;2022-08-02T04:27:27;95156.03;;;17.65;100.00
11184;BME280;5648;43.628;22.684;2022-08-02T04:29:55;95160.09;;;17.68;100.00
11184;BME280;5648;43.628;22.684;2022-08-02T04:32:22;95163.59;;;17.68;100.00
11184;BME280;5648;43.628;22.684;2022-08-02T04:34:48;95172.00;;;17.77;100.00
11184;BME280;5648;43.628;22.684;2022-08-02T04:37:14;95169.31;;;17.77;100.00
11184;BME280;5648;43.628;22.684;2022-08-02T04:39:40;95172.03;;;17.82;100.00
11184;BME280;5648;43.628;22.684;2022-08-02T04:42:06;95172.53;;;17.79;100.00
11184;BME280;5648;43.628;22.684;2022-08-02T04:44:31;95172.34;;;17.86;100.00
11184;BME280;5648;43.628;22.684;2022-08-02T04:46:59;95172.28;;;17.80;100.00
11184;BME280;5648;43.628;22.684;2022-08-02T04:49:27;95175.16;;;17.74;100.00
11184;BME280;5648;43.628;22.684;2022-08-02T04:51:53;95168.94;;;17.90;100.00
11184;BME280;5648;43.628;22.684;2022-08-02T04:54:19;95172.81;;;18.04;100.00
11184;BME280;5648;43.628;22.684;2022-08-02T04:56:44;95171.28;;;18.14;100.00
11184;BME280;5648;43.628;22.684;2022-08-02T04:59:10;95174.06;;;18.24;100.00
11184;BME280;5648;43.628;22.684;2022-08-02T05:01:36;95172.09;;;18.41;100.00
11184;BME280;5648;43.628;22.684;2022-08-02T05:04:04;95178.59;;;18.50;100.00
11184;BME280;5648;43.628;22.684;2022-08-02T05:06:30;95180.91;;;18.68;100.00
11184;BME280;5648;43.628;22.684;2022-08-02T05:08:56;95174.31;;;18.81;100.00
11184;BME280;5648;43.628;22.684;2022-08-02T05:11:22;95182.97;;;18.93;100.00
11184;BME280;5648;43.628;22.684;2022-08-02T05:13:48;95186.78;;;19.03;100.00
11184;BME280;5648;43.628;22.684;2022-08-02T05:16:14;95178.06;;;19.22;100.00
11184;BME280;5648;43.628;22.684;2022-08-02T05:18:39;95187.19;;;19.26;100.00
11184;BME280;5648;43.628;22.684;2022-08-02T05:21:04;95188.06;;;19.37;100.00
11184;BME280;5648;43.628;22.684;2022-08-02T05:23:30;95181.97;;;19.52;100.00
11184;BME280;5648;43.628;22.684;2022-08-02T05:25:55;95185.00;;;19.66;100.00
11184;BME280;5648;43.628;22.684;2022-08-02T05:28:21;95184.22;;;19.70;100.00
11184;BME280;5648;43.628;22.684;2022-08-02T05:30:46;95176.75;;;19.77;100.00
11184;BME280;5648;43.628;22.684;2022-08-02T05:33:12;95180.28;;;19.88;100.00
11184;BME280;5648;43.628;22.684;2022-08-02T05:35:37;95180.81;;;19.95;100.00
11184;BME280;5648;43.628;22.684;2022-08-02T05:38:03;95184.59;;;20.09;100.00
11184;BME280;5648;43.628;22.684;2022-08-02T05:40:28;95192.66;;;20.04;100.00
11184;BME280;5648;43.628;22.684;2022-08-02T05:42:54;95188.63;;;20.02;100.00
11184;BME280;5648;43.628;22.684;2022-08-02T05:45:21;95198.28;;;20.03;100.00
11184;BME280;5648;43.628;22.684;2022-08-02T05:47:46;95194.00;;;20.12;100.00
11184;BME280;5648;43.628;22.684;2022-08-02T05:50:12;95190.28;;;20.23;100.00
11184;BME280;5648;43.628;22.684;2022-08-02T05:52:45;95193.00;;;20.33;100.00
11184;BME280;5648;43.628;22.684;2022-08-02T05:55:17;95201.59;;;20.40;100.00
11184;BME280;5648;43.628;22.684;2022-08-02T05:58:02;95203.72;;;20.38;100.00
11184;BME280;5648;43.628;22.684;2022-08-02T06:00:31;95202.19;;;20.42;100.00
11184;BME280;5648;43.628;22.684;2022-08-02T06:05:57;95208.38;;;20.58;100.00
11184;BME280;5648;43.628;22.684;2022-08-02T06:08:32;95211.31;;;20.57;100.00
11184;BME280;5648;43.628;22.684;2022-08-02T06:11:00;95218.56;;;20.51;100.00
11184;BME280;5648;43.628;22.684;2022-08-02T06:13:26;95218.84;;;20.60;100.00
11184;BME280;5648;43.628;22.684;2022-08-02T06:15:52;95216.44;;;20.73;100.00
11184;BME280;5648;43.628;22.684;2022-08-02T06:18:27;95219.66;;;20.75;100.00
11184;BME280;5648;43.628;22.684;2022-08-02T06:20:55;95215.63;;;20.83;100.00
11184;BME280;5648;43.628;22.684;2022-08-02T06:23:22;95219.13;;;20.89;100.00
11184;BME280;5648;43.628;22.684;2022-08-02T06:25:49;95217.25;;;20.84;100.00
11184;BME280;5648;43.628;22.684;2022-08-02T06:28:15;95218.59;;;20.87;100.00
11184;BME280;5648;43.628;22.684;2022-08-02T06:30:43;95221.53;;;20.80;100.00
11184;BME280;5648;43.628;22.684;2022-08-02T06:33:08;95226.91;;;20.95;100.00
11184;BME280;5648;43.628;22.684;2022-08-02T06:35:44;95221.53;;;20.90;100.00
11184;BME280;5648;43.628;22.684;2022-08-02T06:38:14;95235.50;;;21.02;100.00
11184;BME280;5648;43.628;22.684;2022-08-02T06:40:47;95242.25;;;21.00;100.00
11184;BME280;5648;43.628;22.684;2022-08-02T06:46:00;95226.91;;;21.31;100.00
11184;BME280;5648;43.628;22.684;2022-08-02T06:48:26;95223.66;;;21.44;100.00
11184;BME280;5648;43.628;22.684;2022-08-02T06:50:51;95228.72;;;21.61;100.00
11184;BME280;5648;43.628;22.684;2022-08-02T06:53:17;95232.47;;;21.65;100.00
11184;BME280;5648;43.628;22.684;2022-08-02T06:55:42;95225.19;;;21.66;100.00
11184;BME280;5648;43.628;22.684;2022-08-02T06:58:08;95230.53;;;21.81;100.00
11184;BME280;5648;43.628;22.684;2022-08-02T07:00:33;95240.25;;;21.82;100.00
11184;BME280;5648;43.628;22.684;2022-08-02T07:02:58;95233.22;;;21.81;100.00
11184;BME280;5648;43.628;22.684;2022-08-02T07:05:24;95237.56;;;21.82;100.00
11184;BME280;5648;43.628;22.684;2022-08-02T07:07:50;95233.72;;;21.93;100.00
11184;BME280;5648;43.628;22.684;2022-08-02T07:10:16;95231.06;;;21.88;100.00
11184;BME280;5648;43.628;22.684;2022-08-02T07:12:41;95223.91;;;22.22;100.00
11184;BME280;5648;43.628;22.684;2022-08-02T07:15:07;95223.69;;;22.19;100.00
11184;BME280;5648;43.628;22.684;2022-08-02T07:17:34;95225.53;;;22.29;100.00
11184;BME280;5648;43.628;22.684;2022-08-02T07:20:00;95227.94;;;22.30;100.00
11184;BME280;5648;43.628;22.684;2022-08-02T07:22:26;95225.53;;;22.29;97.62
11184;BME280;5648;43.628;22.684;2022-08-02T07:24:53;95225.38;;;22.49;99.95
11184;BME280;5648;43.628;22.684;2022-08-02T07:27:20;95233.94;;;22.61;96.40
11184;BME280;5648;43.628;22.684;2022-08-02T07:29:46;95231.81;;;22.58;98.03
11184;BME280;5648;43.628;22.684;2022-08-02T07:32:11;95237.06;;;22.39;98.08
11184;BME280;5648;43.628;22.684;2022-08-02T07:34:37;95231.69;;;22.73;97.02
11184;BME280;5648;43.628;22.684;2022-08-02T07:37:02;95242.69;;;22.82;91.60
11184;BME280;5648;43.628;22.684;2022-08-02T07:39:28;95239.41;;;22.95;93.62
11184;BME280;5648;43.628;22.684;2022-08-02T07:41:54;95244.22;;;22.98;87.73
11184;BME280;5648;43.628;22.684;2022-08-02T07:44:19;95248.31;;;22.91;92.02
11184;BME280;5648;43.628;22.684;2022-08-02T07:46:46;95237.75;;;22.94;88.04
11184;BME280;5648;43.628;22.684;2022-08-02T07:49:12;95240.09;;;23.06;88.41
11184;BME280;5648;43.628;22.684;2022-08-02T07:51:45;95244.94;;;23.09;84.81
11184;BME280;5648;43.628;22.684;2022-08-02T07:54:11;95239.81;;;23.36;84.29
11184;BME280;5648;43.628;22.684;2022-08-02T07:56:36;95231.13;;;23.45;80.65
11184;BME280;5648;43.628;22.684;2022-08-02T07:59:03;95228.91;;;23.52;79.00
11184;BME280;5648;43.628;22.684;2022-08-02T08:01:28;95233.91;;;23.34;79.65
11184;BME280;5648;43.628;22.684;2022-08-02T08:03:54;95231.91;;;23.45;82.13
11184;BME280;5648;43.628;22.684;2022-08-02T08:06:19;95231.59;;;23.52;82.88
11184;BME280;5648;43.628;22.684;2022-08-02T08:08:45;95234.84;;;23.49;81.84
11184;BME280;5648;43.628;22.684;2022-08-02T08:11:11;95225.88;;;23.58;83.25
11184;BME280;5648;43.628;22.684;2022-08-02T08:13:37;95241.41;;;23.72;76.64
11184;BME280;5648;43.628;22.684;2022-08-02T08:16:02;95229.44;;;23.78;78.23
11184;BME280;5648;43.628;22.684;2022-08-02T08:18:28;95225.09;;;23.82;76.34
11184;BME280;5648;43.628;22.684;2022-08-02T08:20:54;95235.59;;;23.83;73.04
11184;BME280;5648;43.628;22.684;2022-08-02T08:23:19;95232.66;;;24.04;73.54
11184;BME280;5648;43.628;22.684;2022-08-02T08:25:45;95239.56;;;23.91;72.47
11184;BME280;5648;43.628;22.684;2022-08-02T08:28:10;95236.63;;;23.87;71.58
11184;BME280;5648;43.628;22.684;2022-08-02T08:30:36;95232.94;;;24.02;73.10
11184;BME280;5648;43.628;22.684;2022-08-02T08:33:04;95229.41;;;24.25;68.69
11184;BME280;5648;43.628;22.684;2022-08-02T08:35:29;95237.34;;;24.17;69.48
11184;BME280;5648;43.628;22.684;2022-08-02T08:37:55;95234.78;;;24.31;69.26
11184;BME280;5648;43.628;22.684;2022-08-02T08:40:20;95230.56;;;24.19;71.27
11184;BME280;5648;43.628;22.684;2022-08-02T08:42:46;95229.41;;;24.49;67.42
11184;BME280;5648;43.628;22.684;2022-08-02T08:45:11;95230.75;;;24.47;66.31
11184;BME280;5648;43.628;22.684;2022-08-02T08:47:38;95231.00;;;24.50;67.04
11184;BME280;5648;43.628;22.684;2022-08-02T08:50:18;95228.09;;;24.23;66.20
11184;BME280;5648;43.628;22.684;2022-08-02T08:53:05;95231.94;;;24.41;65.54
11184;BME280;5648;43.628;22.684;2022-08-02T08:55:31;95227.94;;;24.38;65.44
11184;BME280;5648;43.628;22.684;2022-08-02T08:57:58;95242.75;;;24.78;64.28
11184;BME280;5648;43.628;22.684;2022-08-02T09:00:25;95233.69;;;24.69;66.54
11184;BME280;5648;43.628;22.684;2022-08-02T09:02:51;95229.31;;;24.92;62.88
11184;BME280;5648;43.628;22.684;2022-08-02T09:05:17;95231.41;;;24.76;60.62
11184;BME280;5648;43.628;22.684;2022-08-02T09:07:46;95244.13;;;25.13;60.94
11184;BME280;5648;43.628;22.684;2022-08-02T09:10:35;95229.88;;;25.08;58.95
11184;BME280;5648;43.628;22.684;2022-08-02T09:13:17;95233.38;;;25.41;59.31
11184;BME280;5648;43.628;22.684;2022-08-02T09:15:53;95231.19;;;25.10;57.84
11184;BME280;5648;43.628;22.684;2022-08-02T09:18:20;95231.59;;;25.17;58.44
11184;BME280;5648;43.628;22.684;2022-08-02T09:20:57;95232.38;;;25.37;59.77
11184;BME280;5648;43.628;22.684;2022-08-02T09:23:24;95232.19;;;25.61;58.07
11184;BME280;5648;43.628;22.684;2022-08-02T09:26:04;95221.34;;;25.47;56.30
11184;BME280;5648;43.628;22.684;2022-08-02T09:28:32;95237.50;;;25.52;56.56
11184;BME280;5648;43.628;22.684;2022-08-02T09:31:07;95230.47;;;25.37;57.30
11184;BME280;5648;43.628;22.684;2022-08-02T09:33:34;95223.53;;;25.45;57.13
11184;BME280;5648;43.628;22.684;2022-08-02T09:36:19;95225.03;;;25.24;55.84
11184;BME280;5648;43.628;22.684;2022-08-02T09:39:00;95221.91;;;25.30;59.09
11184;BME280;5648;43.628;22.684;2022-08-02T09:41:28;95223.44;;;25.36;54.81
11184;BME280;5648;43.628;22.684;2022-08-02T09:43:55;95217.53;;;25.34;56.53
11184;BME280;5648;43.628;22.684;2022-08-02T09:46:25;95217.06;;;25.60;55.12
11184;BME280;5648;43.628;22.684;2022-08-02T09:48:54;95219.84;;;25.41;56.03
11184;BME280;5648;43.628;22.684;2022-08-02T09:51:23;95211.59;;;25.79;55.33
11184;BME280;5648;43.628;22.684;2022-08-02T09:54:00;95209.88;;;25.96;54.35
11184;BME280;5648;43.628;22.684;2022-08-02T09:56:27;95218.81;;;25.97;53.52
11184;BME280;5648;43.628;22.684;2022-08-02T09:58:53;95212.47;;;26.01;53.61
11184;BME280;5648;43.628;22.684;2022-08-02T10:01:30;95220.41;;;26.12;54.98
11184;BME280;5648;43.628;22.684;2022-08-02T10:03:59;95223.22;;;26.20;54.24
11184;BME280;5648;43.628;22.684;2022-08-02T10:06:26;95220.81;;;26.05;52.94
11184;BME280;5648;43.628;22.684;2022-08-02T10:08:52;95203.03;;;26.26;52.00
11184;BME280;5648;43.628;22.684;2022-08-02T10:11:22;95198.84;;;26.56;52.97
11184;BME280;5648;43.628;22.684;2022-08-02T10:13:48;95191.06;;;26.77;49.71
11184;BME280;5648;43.628;22.684;2022-08-02T10:16:19;95181.41;;;27.07;51.84
11184;BME280;5648;43.628;22.684;2022-08-02T10:18:48;95185.72;;;27.08;51.03
11184;BME280;5648;43.628;22.684;2022-08-02T10:21:23;95190.94;;;27.27;49.45
11184;BME280;5648;43.628;22.684;2022-08-02T10:24:00;95196.09;;;26.70;49.40
11184;BME280;5648;43.628;22.684;2022-08-02T10:26:29;95187.91;;;26.61;50.91
11184;BME280;5648;43.628;22.684;2022-08-02T10:28:55;95187.78;;;26.67;50.79
11184;BME280;5648;43.628;22.684;2022-08-02T10:31:24;95197.22;;;26.91;49.33
11184;BME280;5648;43.628;22.684;2022-08-02T10:33:51;95182.06;;;26.90;49.41
11184;BME280;5648;43.628;22.684;2022-08-02T10:36:19;95192.31;;;26.93;49.65
11184;BME280;5648;43.628;22.684;2022-08-02T10:38:45;95177.91;;;27.07;48.82
11184;BME280;5648;43.628;22.684;2022-08-02T10:41:11;95181.75;;;27.14;48.29
11184;BME280;5648;43.628;22.684;2022-08-02T10:49:11;95173.75;;;27.40;48.28
11184;BME280;5648;43.628;22.684;2022-08-02T10:54:34;95176.72;;;27.30;47.30
11184;BME280;5648;43.628;22.684;2022-08-02T10:57:02;95181.06;;;27.31;47.36
11184;BME280;5648;43.628;22.684;2022-08-02T10:59:33;95170.31;;;27.48;47.73
11184;BME280;5648;43.628;22.684;2022-08-02T11:02:05;95168.63;;;27.70;46.67
11184;BME280;5648;43.628;22.684;2022-08-02T11:07:19;95161.84;;;27.98;46.52
11184;BME280;5648;43.628;22.684;2022-08-02T11:09:49;95151.22;;;28.28;44.09
11184;BME280;5648;43.628;22.684;2022-08-02T11:12:17;95158.09;;;27.68;45.23
11184;BME280;5648;43.628;22.684;2022-08-02T11:14:58;95160.06;;;27.85;45.45
11184;BME280;5648;43.628;22.684;2022-08-02T11:17:24;95152.97;;;28.24;44.87
11184;BME280;5648;43.628;22.684;2022-08-02T11:22:40;95149.66;;;28.35;45.31
11184;BME280;5648;43.628;22.684;2022-08-02T11:27:57;95164.59;;;28.07;43.89
11184;BME280;5648;43.628;22.684;2022-08-02T11:30:24;95153.78;;;28.42;45.12
11184;BME280;5648;43.628;22.684;2022-08-02T11:32:54;95156.31;;;28.21;44.48
11184;BME280;5648;43.628;22.684;2022-08-02T11:35:20;95154.94;;;28.32;43.47
11184;BME280;5648;43.628;22.684;2022-08-02T11:37:46;95151.78;;;27.99;44.52
11184;BME280;5648;43.628;22.684;2022-08-02T11:40:16;95151.53;;;28.26;45.47
11184;BME280;5648;43.628;22.684;2022-08-02T11:42:43;95154.75;;;28.37;44.14
11184;BME280;5648;43.628;22.684;2022-08-02T11:45:11;95154.94;;;28.58;44.60
11184;BME280;5648;43.628;22.684;2022-08-02T11:47:51;95158.28;;;28.55;45.22
11184;BME280;5648;43.628;22.684;2022-08-02T11:50:18;95158.63;;;28.88;45.03
11184;BME280;5648;43.628;22.684;2022-08-02T11:52:45;95165.50;;;28.59;45.93
11184;BME280;5648;43.628;22.684;2022-08-02T11:55:11;95149.97;;;28.60;44.13
11184;BME280;5648;43.628;22.684;2022-08-02T11:57:38;95152.69;;;28.94;45.48
11184;BME280;5648;43.628;22.684;2022-08-02T12:00:14;95152.69;;;28.77;44.38
11184;BME280;5648;43.628;22.684;2022-08-02T12:02:45;95135.25;;;28.61;45.33
11184;BME280;5648;43.628;22.684;2022-08-02T12:05:16;95153.34;;;28.48;43.07
11184;BME280;5648;43.628;22.684;2022-08-02T12:07:43;95162.03;;;28.10;43.89
11184;BME280;5648;43.628;22.684;2022-08-02T12:10:14;95148.63;;;28.14;44.03
11184;BME280;5648;43.628;22.684;2022-08-02T12:12:54;95151.78;;;27.99;44.52
11184;BME280;5648;43.628;22.684;2022-08-02T12:17:59;95146.94;;;28.61;44.05
11184;BME280;5648;43.628;22.684;2022-08-02T12:20:44;95147.88;;;28.83;44.75
11184;BME280;5648;43.628;22.684;2022-08-02T12:23:09;95153.19;;;28.88;42.83
11184;BME280;5648;43.628;22.684;2022-08-02T12:25:35;95144.53;;;29.03;43.90
11184;BME280;5648;43.628;22.684;2022-08-02T12:30:54;95136.38;;;29.41;40.89
11184;BME280;5648;43.628;22.684;2022-08-02T12:33:21;95132.38;;;29.01;40.05
11184;BME280;5648;43.628;22.684;2022-08-02T12:35:47;95139.06;;;29.03;39.26
11184;BME280;5648;43.628;22.684;2022-08-02T12:38:12;95139.56;;;29.05;41.29
11184;BME280;5648;43.628;22.684;2022-08-02T12:40:38;95137.78;;;29.09;39.55
11184;BME280;5648;43.628;22.684;2022-08-02T12:43:05;95141.38;;;29.48;40.82
11184;BME280;5648;43.628;22.684;2022-08-02T12:45:45;95132.66;;;29.63;39.42
11184;BME280;5648;43.628;22.684;2022-08-02T12:48:11;95130.13;;;29.88;41.25
11184;BME280;5648;43.628;22.684;2022-08-02T12:50:37;95135.03;;;29.73;39.06
11184;BME280;5648;43.628;22.684;2022-08-02T12:53:15;95132.56;;;29.42;38.33
11184;BME280;5648;43.628;22.684;2022-08-02T12:55:53;95117.13;;;29.55;40.13
11184;BME280;5648;43.628;22.684;2022-08-02T12:58:20;95124.50;;;29.54;38.51
11184;BME280;5648;43.628;22.684;2022-08-02T13:00:53;95132.25;;;29.35;38.38
11184;BME280;5648;43.628;22.684;2022-08-02T13:03:19;95127.75;;;29.39;39.13
11184;BME280;5648;43.628;22.684;2022-08-02T13:05:45;95129.47;;;29.61;38.39
11184;BME280;5648;43.628;22.684;2022-08-02T13:08:11;95128.44;;;29.74;38.05
11184;BME280;5648;43.628;22.684;2022-08-02T13:10:37;95127.00;;;29.98;38.05
11184;BME280;5648;43.628;22.684;2022-08-02T13:13:03;95119.50;;;29.65;37.51
11184;BME280;5648;43.628;22.684;2022-08-02T13:15:28;95114.41;;;29.55;38.58
11184;BME280;5648;43.628;22.684;2022-08-02T13:17:54;95121.91;;;29.67;37.67
11184;BME280;5648;43.628;22.684;2022-08-02T13:20:20;95124.22;;;29.47;36.67
11184;BME280;5648;43.628;22.684;2022-08-02T13:22:45;95126.59;;;29.58;37.30
11184;BME280;5648;43.628;22.684;2022-08-02T13:25:11;95127.22;;;29.63;36.35
11184;BME280;5648;43.628;22.684;2022-08-02T13:27:37;95123.56;;;29.89;36.91
11184;BME280;5648;43.628;22.684;2022-08-02T13:30:04;95128.53;;;29.87;35.93
11184;BME280;5648;43.628;22.684;2022-08-02T13:32:30;95136.16;;;29.72;35.84
11184;BME280;5648;43.628;22.684;2022-08-02T13:34:56;95128.34;;;29.92;35.54